sensor_id;sensor_type;location;lat;lon;timestamp;temperature;humidity
5802;DHT22;2927;49.366;8.530;2022-11-20T00:02:18;4.30;99.90
5802;DHT22;2927;49.366;8.530;2022-11-20T00:04:43;4.30;99.90
5802;DHT22;2927;49.366;8.530;2022-11-20T00:07:09;4.30;99.90
5802;DHT22;2927;49.366;8.530;2022-11-20T00:09:34;4.30;99.90
5802;DHT22;2927;49.366;8.530;2022-11-20T00:12:00;4.30;99.90
5802;DHT22;2927;49.366;8.530;2022-11-20T00:14:25;4.30;99.90
5802;DHT22;2927;49.366;8.530;2022-11-20T00:16:51;4.30;99.90
5802;DHT22;2927;49.366;8.530;2022-11-20T00:19:16;4.30;99.90
5802;DHT22;2927;49.366;8.530;2022-11-20T00:21:42;4.20;99.90
5802;DHT22;2927;49.366;8.530;2022-11-20T00:24:08;4.20;99.90
5802;DHT22;2927;49.366;8.530;2022-11-20T00:26:35;4.20;99.90
5802;DHT22;2927;49.366;8.530;2022-11-20T00:29:01;4.20;99.90
5802;DHT22;2927;49.366;8.530;2022-11-20T00:31:28;4.20;99.90
5802;DHT22;2927;49.366;8.530;2022-11-20T00:33:54;4.20;99.90
5802;DHT22;2927;49.366;8.530;2022-11-20T00:36:21;4.30;99.90
5802;DHT22;2927;49.366;8.530;2022-11-20T00:38:51;4.30;99.90
5802;DHT22;2927;49.366;8.530;2022-11-20T00:41:17;4.30;99.90
5802;DHT22;2927;49.366;8.530;2022-11-20T00:43:43;4.40;99.90
5802;DHT22;2927;49.366;8.530;2022-11-20T00:46:16;4.40;99.90
5802;DHT22;2927;49.366;8.530;2022-11-20T00:48:43;4.40;99.90
5802;DHT22;2927;49.366;8.530;2022-11-20T00:51:09;4.40;99.90
5802;DHT22;2927;49.366;8.530;2022-11-20T00:53:36;4.40;99.90
5802;DHT22;2927;49.366;8.530;2022-11-20T00:56:04;4.40;99.90
5802;DHT22;2927;49.366;8.530;2022-11-20T00:58:32;4.40;99.90
5802;DHT22;2927;49.366;8.530;2022-11-20T01:01:11;4.40;99.90
5802;DHT22;2927;49.366;8.530;2022-11-20T01:03:40;4.40;99.90
5802;DHT22;2927;49.366;8.530;2022-11-20T01:06:12;4.50;99.90
5802;DHT22;2927;49.366;8.530;2022-11-20T01:08:38;4.40;99.90
5802;DHT22;2927;49.366;8.530;2022-11-20T01:11:06;4.40;99.90
5802;DHT22;2927;49.366;8.530;2022-11-20T01:13:32;4.50;99.90
5802;DHT22;2927;49.366;8.530;2022-11-20T01:16:11;4.50;99.90
5802;DHT22;2927;49.366;8.530;2022-11-20T01:18:38;4.50;99.90
5802;DHT22;2927;49.366;8.530;2022-11-20T01:21:34;4.50;99.90
5802;DHT22;2927;49.366;8.530;2022-11-20T01:24:01;4.50;99.90
5802;DHT22;2927;49.366;8.530;2022-11-20T01:26:29;4.50;99.90
5802;DHT22;2927;49.366;8.530;2022-11-20T01:28:55;4.50;99.90
5802;DHT22;2927;49.366;8.530;2022-11-20T01:31:26;4.60;99.90
5802;DHT22;2927;49.366;8.530;2022-11-20T01:33:54;4.60;99.90
5802;DHT22;2927;49.366;8.530;2022-11-20T01:36:22;4.60;99.90
5802;DHT22;2927;49.366;8.530;2022-11-20T01:38:51;4.50;99.90
5802;DHT22;2927;49.366;8.530;2022-11-20T01:41:18;4.60;99.90
5802;DHT22;2927;49.366;8.530;2022-11-20T01:44:03;4.60;99.90
5802;DHT22;2927;49.366;8.530;2022-11-20T01:46:31;4.60;99.90
5802;DHT22;2927;49.366;8.530;2022-11-20T01:49:04;4.60;99.90
5802;DHT22;2927;49.366;8.530;2022-11-20T01:51:47;4.60;99.90
5802;DHT22;2927;49.366;8.530;2022-11-20T01:54:23;4.70;99.90
5802;DHT22;2927;49.366;8.530;2022-11-20T01:56:52;4.70;99.90
5802;DHT22;2927;49.366;8.530;2022-11-20T01:59:20;4.60;99.90
5802;DHT22;2927;49.366;8.530;2022-11-20T02:01:47;4.40;99.90
5802;DHT22;2927;49.366;8.530;2022-11-20T02:04:13;4.40;99.90
5802;DHT22;2927;49.366;8.530;2022-11-20T02:06:44;4.20;99.90
5802;DHT22;2927;49.366;8.530;2022-11-20T02:09:11;4.20;99.90
5802;DHT22;2927;49.366;8.530;2022-11-20T02:11:37;4.20;99.90
5802;DHT22;2927;49.366;8.530;2022-11-20T02:14:03;4.30;99.90
5802;DHT22;2927;49.366;8.530;2022-11-20T02:16:33;4.40;99.90
5802;DHT22;2927;49.366;8.530;2022-11-20T02:19:02;4.50;99.90
5802;DHT22;2927;49.366;8.530;2022-11-20T02:21:37;4.50;99.90
5802;DHT22;2927;49.366;8.530;2022-11-20T02:24:11;4.60;99.90
5802;DHT22;2927;49.366;8.530;2022-11-20T02:26:54;4.60;99.90
5802;DHT22;2927;49.366;8.530;2022-11-20T02:29:27;4.60;99.90
5802;DHT22;2927;49.366;8.530;2022-11-20T02:31:55;4.50;99.90
5802;DHT22;2927;49.366;8.530;2022-11-20T02:34:22;4.40;99.90
5802;DHT22;2927;49.366;8.530;2022-11-20T02:36:48;4.50;99.90
5802;DHT22;2927;49.366;8.530;2022-11-20T02:39:15;4.50;99.90
5802;DHT22;2927;49.366;8.530;2022-11-20T02:41:42;4.50;99.90
5802;DHT22;2927;49.366;8.530;2022-11-20T02:44:08;4.50;99.90
5802;DHT22;2927;49.366;8.530;2022-11-20T02:46:34;4.50;99.90
5802;DHT22;2927;49.366;8.530;2022-11-20T02:49:02;4.50;99.90
5802;DHT22;2927;49.366;8.530;2022-11-20T02:51:28;4.50;99.90
5802;DHT22;2927;49.366;8.530;2022-11-20T02:53:53;4.50;99.90
5802;DHT22;2927;49.366;8.530;2022-11-20T02:56:19;4.40;99.90
5802;DHT22;2927;49.366;8.530;2022-11-20T02:58:45;4.40;99.90
5802;DHT22;2927;49.366;8.530;2022-11-20T03:01:11;4.40;99.90
5802;DHT22;2927;49.366;8.530;2022-11-20T03:03:37;4.30;99.90
5802;DHT22;2927;49.366;8.530;2022-11-20T03:06:02;4.30;99.90
5802;DHT22;2927;49.366;8.530;2022-11-20T03:08:28;4.30;99.90
5802;DHT22;2927;49.366;8.530;2022-11-20T03:10:53;4.40;99.90
5802;DHT22;2927;49.366;8.530;2022-11-20T03:13:19;4.50;99.90
5802;DHT22;2927;49.366;8.530;2022-11-20T03:15:44;4.40;99.90
5802;DHT22;2927;49.366;8.530;2022-11-20T03:18:10;4.40;99.90
5802;DHT22;2927;49.366;8.530;2022-11-20T03:20:36;4.40;99.90
5802;DHT22;2927;49.366;8.530;2022-11-20T03:23:01;4.40;99.90
5802;DHT22;2927;49.366;8.530;2022-11-20T03:25:27;4.30;99.90
5802;DHT22;2927;49.366;8.530;2022-11-20T03:27:54;4.30;99.90
5802;DHT22;2927;49.366;8.530;2022-11-20T03:30:19;4.30;99.90
5802;DHT22;2927;49.366;8.530;2022-11-20T03:32:45;4.30;99.90
5802;DHT22;2927;49.366;8.530;2022-11-20T03:35:11;4.30;99.90
5802;DHT22;2927;49.366;8.530;2022-11-20T03:37:36;4.30;99.90
5802;DHT22;2927;49.366;8.530;2022-11-20T03:40:02;4.30;99.90
5802;DHT22;2927;49.366;8.530;2022-11-20T03:42:28;4.20;99.90
5802;DHT22;2927;49.366;8.530;2022-11-20T03:45:13;4.30;99.90
5802;DHT22;2927;49.366;8.530;2022-11-20T03:47:39;4.30;99.90
5802;DHT22;2927;49.366;8.530;2022-11-20T03:50:05;4.30;99.90
5802;DHT22;2927;49.366;8.530;2022-11-20T03:52:31;4.30;99.90
5802;DHT22;2927;49.366;8.530;2022-11-20T03:54:56;4.40;99.90
5802;DHT22;2927;49.366;8.530;2022-11-20T03:57:22;4.40;99.90
5802;DHT22;2927;49.366;8.530;2022-11-20T03:59:47;4.40;99.90
5802;DHT22;2927;49.366;8.530;2022-11-20T04:02:13;4.40;99.90
5802;DHT22;2927;49.366;8.530;2022-11-20T04:04:38;4.40;99.90
5802;DHT22;2927;49.366;8.530;2022-11-20T04:07:04;4.40;99.90
5802;DHT22;2927;49.366;8.530;2022-11-20T04:09:29;4.40;99.90
5802;DHT22;2927;49.366;8.530;2022-11-20T04:11:55;4.40;99.90
5802;DHT22;2927;49.366;8.530;2022-11-20T04:14:21;4.50;99.90
5802;DHT22;2927;49.366;8.530;2022-11-20T04:16:46;4.50;99.90
5802;DHT22;2927;49.366;8.530;2022-11-20T04:19:14;4.60;99.90
5802;DHT22;2927;49.366;8.530;2022-11-20T04:21:40;4.60;99.90
5802;DHT22;2927;49.366;8.530;2022-11-20T04:24:06;4.60;99.90
5802;DHT22;2927;49.366;8.530;2022-11-20T04:26:32;4.70;99.90
5802;DHT22;2927;49.366;8.530;2022-11-20T04:28:58;4.80;99.90
5802;DHT22;2927;49.366;8.530;2022-11-20T04:31:27;4.90;99.90
5802;DHT22;2927;49.366;8.530;2022-11-20T04:33:53;4.80;99.90
5802;DHT22;2927;49.366;8.530;2022-11-20T04:36:20;4.90;99.90
5802;DHT22;2927;49.366;8.530;2022-11-20T04:38:49;4.90;99.90
5802;DHT22;2927;49.366;8.530;2022-11-20T04:41:18;4.90;99.90
5802;DHT22;2927;49.366;8.530;2022-11-20T04:43:52;4.90;99.90
5802;DHT22;2927;49.366;8.530;2022-11-20T04:46:19;4.90;99.90
5802;DHT22;2927;49.366;8.530;2022-11-20T04:48:45;5.00;99.90
5802;DHT22;2927;49.366;8.530;2022-11-20T04:51:11;5.00;99.90
5802;DHT22;2927;49.366;8.530;2022-11-20T04:53:36;5.00;99.90
5802;DHT22;2927;49.366;8.530;2022-11-20T04:56:03;4.90;99.90
5802;DHT22;2927;49.366;8.530;2022-11-20T04:58:30;4.90;99.90
5802;DHT22;2927;49.366;8.530;2022-11-20T05:01:15;4.80;99.90
5802;DHT22;2927;49.366;8.530;2022-11-20T05:03:42;4.80;99.90
5802;DHT22;2927;49.366;8.530;2022-11-20T05:06:09;4.80;99.90
5802;DHT22;2927;49.366;8.530;2022-11-20T05:08:35;4.80;99.90
5802;DHT22;2927;49.366;8.530;2022-11-20T05:11:08;4.80;99.90
5802;DHT22;2927;49.366;8.530;2022-11-20T05:13:34;4.90;99.90
5802;DHT22;2927;49.366;8.530;2022-11-20T05:16:17;4.90;99.90
5802;DHT22;2927;49.366;8.530;2022-11-20T05:18:43;4.90;99.90
5802;DHT22;2927;49.366;8.530;2022-11-20T05:21:10;4.90;99.90
5802;DHT22;2927;49.366;8.530;2022-11-20T05:23:36;5.00;99.90
5802;DHT22;2927;49.366;8.530;2022-11-20T05:26:02;5.00;99.90
5802;DHT22;2927;49.366;8.530;2022-11-20T05:28:30;5.00;99.90
5802;DHT22;2927;49.366;8.530;2022-11-20T05:30:56;5.00;99.90
5802;DHT22;2927;49.366;8.530;2022-11-20T05:33:21;5.00;99.90
5802;DHT22;2927;49.366;8.530;2022-11-20T05:35:47;5.00;99.90
5802;DHT22;2927;49.366;8.530;2022-11-20T05:38:13;5.00;99.90
5802;DHT22;2927;49.366;8.530;2022-11-20T05:40:39;5.00;99.90
5802;DHT22;2927;49.366;8.530;2022-11-20T05:43:04;5.00;99.90
5802;DHT22;2927;49.366;8.530;2022-11-20T05:45:30;5.00;99.90
5802;DHT22;2927;49.366;8.530;2022-11-20T05:47:59;5.00;99.90
5802;DHT22;2927;49.366;8.530;2022-11-20T05:50:28;5.00;99.90
5802;DHT22;2927;49.366;8.530;2022-11-20T05:52:53;5.10;99.90
5802;DHT22;2927;49.366;8.530;2022-11-20T05:55:19;5.10;99.90
5802;DHT22;2927;49.366;8.530;2022-11-20T05:57:44;5.10;99.90
5802;DHT22;2927;49.366;8.530;2022-11-20T06:00:10;5.10;99.90
5802;DHT22;2927;49.366;8.530;2022-11-20T06:02:36;5.20;99.90
5802;DHT22;2927;49.366;8.530;2022-11-20T06:05:02;5.20;99.90
5802;DHT22;2927;49.366;8.530;2022-11-20T06:07:27;5.20;99.90
5802;DHT22;2927;49.366;8.530;2022-11-20T06:09:53;5.10;99.90
5802;DHT22;2927;49.366;8.530;2022-11-20T06:12:18;5.10;99.90
5802;DHT22;2927;49.366;8.530;2022-11-20T06:14:44;5.10;99.90
5802;DHT22;2927;49.366;8.530;2022-11-20T06:17:09;5.00;99.90
5802;DHT22;2927;49.366;8.530;2022-11-20T06:19:35;5.00;99.90
5802;DHT22;2927;49.366;8.530;2022-11-20T06:22:00;5.00;99.90
5802;DHT22;2927;49.366;8.530;2022-11-20T06:24:26;5.00;99.90
5802;DHT22;2927;49.366;8.530;2022-11-20T06:26:52;5.00;99.90
5802;DHT22;2927;49.366;8.530;2022-11-20T06:29:17;5.00;99.90
5802;DHT22;2927;49.366;8.530;2022-11-20T06:31:43;5.00;99.90
5802;DHT22;2927;49.366;8.530;2022-11-20T06:34:08;5.00;99.90
5802;DHT22;2927;49.366;8.530;2022-11-20T06:36:34;5.10;99.90
5802;DHT22;2927;49.366;8.530;2022-11-20T06:39:00;5.10;99.90
5802;DHT22;2927;49.366;8.530;2022-11-20T06:41:25;5.10;99.90
5802;DHT22;2927;49.366;8.530;2022-11-20T06:43:51;5.10;99.90
5802;DHT22;2927;49.366;8.530;2022-11-20T06:46:18;5.10;99.90
5802;DHT22;2927;49.366;8.530;2022-11-20T06:48:45;5.10;99.90
5802;DHT22;2927;49.366;8.530;2022-11-20T06:51:11;5.10;99.90
5802;DHT22;2927;49.366;8.530;2022-11-20T06:53:37;5.20;99.90
5802;DHT22;2927;49.366;8.530;2022-11-20T06:56:02;5.20;99.90
5802;DHT22;2927;49.366;8.530;2022-11-20T06:58:30;5.30;99.90
5802;DHT22;2927;49.366;8.530;2022-11-20T07:01:04;5.30;99.90
5802;DHT22;2927;49.366;8.530;2022-11-20T07:03:30;5.30;99.90
5802;DHT22;2927;49.366;8.530;2022-11-20T07:05:57;5.30;99.90
5802;DHT22;2927;49.366;8.530;2022-11-20T07:08:23;5.30;99.90
5802;DHT22;2927;49.366;8.530;2022-11-20T07:10:48;5.30;99.90
5802;DHT22;2927;49.366;8.530;2022-11-20T07:13:14;5.30;99.90
5802;DHT22;2927;49.366;8.530;2022-11-20T07:15:39;5.30;99.90
5802;DHT22;2927;49.366;8.530;2022-11-20T07:18:05;5.40;99.90
5802;DHT22;2927;49.366;8.530;2022-11-20T07:20:31;5.40;99.90
5802;DHT22;2927;49.366;8.530;2022-11-20T07:22:57;5.40;99.90
5802;DHT22;2927;49.366;8.530;2022-11-20T07:25:24;5.40;99.90
5802;DHT22;2927;49.366;8.530;2022-11-20T07:27:50;5.40;99.90
5802;DHT22;2927;49.366;8.530;2022-11-20T07:30:16;5.50;99.90
5802;DHT22;2927;49.366;8.530;2022-11-20T07:32:42;5.50;99.90
5802;DHT22;2927;49.366;8.530;2022-11-20T07:35:08;5.50;99.90
5802;DHT22;2927;49.366;8.530;2022-11-20T07:37:37;5.50;99.90
5802;DHT22;2927;49.366;8.530;2022-11-20T07:40:02;5.50;99.90
5802;DHT22;2927;49.366;8.530;2022-11-20T07:42:28;5.60;99.90
5802;DHT22;2927;49.366;8.530;2022-11-20T07:44:54;5.70;99.90
5802;DHT22;2927;49.366;8.530;2022-11-20T07:47:19;5.70;99.90
5802;DHT22;2927;49.366;8.530;2022-11-20T07:49:45;5.70;99.90
5802;DHT22;2927;49.366;8.530;2022-11-20T07:52:10;5.70;99.90
5802;DHT22;2927;49.366;8.530;2022-11-20T07:54:36;5.80;99.90
5802;DHT22;2927;49.366;8.530;2022-11-20T07:57:01;5.80;99.90
5802;DHT22;2927;49.366;8.530;2022-11-20T07:59:27;5.90;99.90
5802;DHT22;2927;49.366;8.530;2022-11-20T08:01:53;6.00;99.90
5802;DHT22;2927;49.366;8.530;2022-11-20T08:04:18;6.00;99.90
5802;DHT22;2927;49.366;8.530;2022-11-20T08:06:44;6.10;99.90
5802;DHT22;2927;49.366;8.530;2022-11-20T08:09:09;6.10;99.90
5802;DHT22;2927;49.366;8.530;2022-11-20T08:11:35;6.10;99.90
5802;DHT22;2927;49.366;8.530;2022-11-20T08:14:19;6.20;99.90
5802;DHT22;2927;49.366;8.530;2022-11-20T08:16:47;6.30;99.90
5802;DHT22;2927;49.366;8.530;2022-11-20T08:19:14;6.40;99.90
5802;DHT22;2927;49.366;8.530;2022-11-20T08:21:40;6.50;99.90
5802;DHT22;2927;49.366;8.530;2022-11-20T08:24:06;6.50;99.90
5802;DHT22;2927;49.366;8.530;2022-11-20T08:26:32;6.50;99.90
5802;DHT22;2927;49.366;8.530;2022-11-20T08:28:58;6.60;99.90
5802;DHT22;2927;49.366;8.530;2022-11-20T08:31:25;6.70;99.90
5802;DHT22;2927;49.366;8.530;2022-11-20T08:33:51;6.80;99.90
5802;DHT22;2927;49.366;8.530;2022-11-20T08:36:18;6.80;99.90
5802;DHT22;2927;49.366;8.530;2022-11-20T08:38:51;6.90;99.90
5802;DHT22;2927;49.366;8.530;2022-11-20T08:41:17;6.90;99.90
5802;DHT22;2927;49.366;8.530;2022-11-20T08:43:50;7.00;99.90
5802;DHT22;2927;49.366;8.530;2022-11-20T08:46:16;6.90;99.90
5802;DHT22;2927;49.366;8.530;2022-11-20T08:48:42;6.90;99.90
5802;DHT22;2927;49.366;8.530;2022-11-20T08:51:08;6.90;99.90
5802;DHT22;2927;49.366;8.530;2022-11-20T08:53:34;6.90;99.90
5802;DHT22;2927;49.366;8.530;2022-11-20T08:56:00;7.00;99.90
5802;DHT22;2927;49.366;8.530;2022-11-20T08:58:26;7.00;99.90
5802;DHT22;2927;49.366;8.530;2022-11-20T09:00:52;7.00;99.90
5802;DHT22;2927;49.366;8.530;2022-11-20T09:03:17;7.00;99.90
5802;DHT22;2927;49.366;8.530;2022-11-20T09:05:43;7.10;99.90
5802;DHT22;2927;49.366;8.530;2022-11-20T09:08:08;7.10;99.90
5802;DHT22;2927;49.366;8.530;2022-11-20T09:10:34;7.10;99.90
5802;DHT22;2927;49.366;8.530;2022-11-20T09:13:00;7.10;99.90
5802;DHT22;2927;49.366;8.530;2022-11-20T09:15:25;7.10;99.90
5802;DHT22;2927;49.366;8.530;2022-11-20T09:17:55;7.20;99.90
5802;DHT22;2927;49.366;8.530;2022-11-20T09:20:21;7.20;99.90
5802;DHT22;2927;49.366;8.530;2022-11-20T09:22:46;7.20;99.90
5802;DHT22;2927;49.366;8.530;2022-11-20T09:25:12;7.30;99.90
5802;DHT22;2927;49.366;8.530;2022-11-20T09:27:37;7.30;99.90
5802;DHT22;2927;49.366;8.530;2022-11-20T09:30:04;7.40;99.90
5802;DHT22;2927;49.366;8.530;2022-11-20T09:32:29;7.40;99.90
5802;DHT22;2927;49.366;8.530;2022-11-20T09:34:55;7.40;99.90
5802;DHT22;2927;49.366;8.530;2022-11-20T09:37:21;7.40;99.90
5802;DHT22;2927;49.366;8.530;2022-11-20T09:39:46;7.40;99.90
5802;DHT22;2927;49.366;8.530;2022-11-20T09:45:14;7.50;99.90
5802;DHT22;2927;49.366;8.530;2022-11-20T09:50:36;7.50;99.90
5802;DHT22;2927;49.366;8.530;2022-11-20T09:55:47;7.50;99.90
5802;DHT22;2927;49.366;8.530;2022-11-20T09:58:26;7.60;99.90
5802;DHT22;2927;49.366;8.530;2022-11-20T10:00:58;7.70;99.90
5802;DHT22;2927;49.366;8.530;2022-11-20T10:03:49;7.70;99.90
5802;DHT22;2927;49.366;8.530;2022-11-20T10:06:17;7.80;99.90
5802;DHT22;2927;49.366;8.530;2022-11-20T10:08:58;7.80;99.90
5802;DHT22;2927;49.366;8.530;2022-11-20T10:11:42;7.80;99.90
5802;DHT22;2927;49.366;8.530;2022-11-20T10:14:19;7.80;99.90
5802;DHT22;2927;49.366;8.530;2022-11-20T10:16:59;7.90;99.90
5802;DHT22;2927;49.366;8.530;2022-11-20T10:19:34;7.80;99.90
5802;DHT22;2927;49.366;8.530;2022-11-20T10:22:31;7.90;99.90
5802;DHT22;2927;49.366;8.530;2022-11-20T10:25:15;7.90;99.90
5802;DHT22;2927;49.366;8.530;2022-11-20T10:27:54;7.90;99.90
5802;DHT22;2927;49.366;8.530;2022-11-20T10:30:21;7.90;99.90
5802;DHT22;2927;49.366;8.530;2022-11-20T10:33:05;7.90;99.90
5802;DHT22;2927;49.366;8.530;2022-11-20T10:35:41;8.00;99.90
5802;DHT22;2927;49.366;8.530;2022-11-20T10:38:15;8.00;99.90
5802;DHT22;2927;49.366;8.530;2022-11-20T10:40:45;8.00;99.90
5802;DHT22;2927;49.366;8.530;2022-11-20T10:43:26;8.20;99.90
5802;DHT22;2927;49.366;8.530;2022-11-20T10:45:57;8.30;99.90
5802;DHT22;2927;49.366;8.530;2022-11-20T10:48:25;8.40;99.90
5802;DHT22;2927;49.366;8.530;2022-11-20T10:56:17;8.20;99.90
5802;DHT22;2927;49.366;8.530;2022-11-20T10:58:46;8.10;99.90
5802;DHT22;2927;49.366;8.530;2022-11-20T11:01:18;8.10;99.90
5802;DHT22;2927;49.366;8.530;2022-11-20T11:03:46;8.10;99.90
5802;DHT22;2927;49.366;8.530;2022-11-20T11:06:29;8.20;99.90
5802;DHT22;2927;49.366;8.530;2022-11-20T11:09:01;8.40;99.90
5802;DHT22;2927;49.366;8.530;2022-11-20T11:11:31;8.60;99.90
5802;DHT22;2927;49.366;8.530;2022-11-20T11:14:12;8.80;99.90
5802;DHT22;2927;49.366;8.530;2022-11-20T11:16:52;8.80;99.90
5802;DHT22;2927;49.366;8.530;2022-11-20T11:19:18;8.80;99.90
5802;DHT22;2927;49.366;8.530;2022-11-20T11:21:48;9.00;99.90
5802;DHT22;2927;49.366;8.530;2022-11-20T11:27:02;8.90;99.90
5802;DHT22;2927;49.366;8.530;2022-11-20T11:29:30;8.90;99.90
5802;DHT22;2927;49.366;8.530;2022-11-20T11:32:12;9.10;99.90
5802;DHT22;2927;49.366;8.530;2022-11-20T11:34:38;9.00;99.90
5802;DHT22;2927;49.366;8.530;2022-11-20T11:37:05;8.90;99.90
5802;DHT22;2927;49.366;8.530;2022-11-20T11:39:35;8.70;99.90
5802;DHT22;2927;49.366;8.530;2022-11-20T11:42:04;8.80;99.90
5802;DHT22;2927;49.366;8.530;2022-11-20T11:44:33;8.70;99.90
5802;DHT22;2927;49.366;8.530;2022-11-20T11:47:26;8.70;99.90
5802;DHT22;2927;49.366;8.530;2022-11-20T11:50:27;8.50;99.90
5802;DHT22;2927;49.366;8.530;2022-11-20T11:52:56;8.50;99.90
5802;DHT22;2927;49.366;8.530;2022-11-20T11:55:33;8.40;99.90
5802;DHT22;2927;49.366;8.530;2022-11-20T12:00:28;8.30;99.90
5802;DHT22;2927;49.366;8.530;2022-11-20T12:03:20;8.40;99.90
5802;DHT22;2927;49.366;8.530;2022-11-20T12:06:11;8.60;99.90
5802;DHT22;2927;49.366;8.530;2022-11-20T12:08:53;8.80;99.90
5802;DHT22;2927;49.366;8.530;2022-11-20T12:11:45;9.00;99.90
5802;DHT22;2927;49.366;8.530;2022-11-20T12:16:45;9.40;99.90
5802;DHT22;2927;49.366;8.530;2022-11-20T12:19:12;9.60;99.90
5802;DHT22;2927;49.366;8.530;2022-11-20T12:21:55;9.80;99.90
5802;DHT22;2927;49.366;8.530;2022-11-20T12:24:42;10.10;99.90
5802;DHT22;2927;49.366;8.530;2022-11-20T12:30:17;10.30;1.00
5802;DHT22;2927;49.366;8.530;2022-11-20T12:36:06;10.30;1.00
5802;DHT22;2927;49.366;8.530;2022-11-20T12:47:24;10.20;1.00
5802;DHT22;2927;49.366;8.530;2022-11-20T12:50:00;10.10;1.00
5802;DHT22;2927;49.366;8.530;2022-11-20T12:52:49;10.00;1.00
5802;DHT22;2927;49.366;8.530;2022-11-20T13:00:31;10.50;1.00
5802;DHT22;2927;49.366;8.530;2022-11-20T13:08:35;10.20;1.00
5802;DHT22;2927;49.366;8.530;2022-11-20T13:11:15;10.10;1.00
5802;DHT22;2927;49.366;8.530;2022-11-20T13:16:12;9.80;99.90
5802;DHT22;2927;49.366;8.530;2022-11-20T13:18:40;9.80;1.00
5802;DHT22;2927;49.366;8.530;2022-11-20T13:21:34;9.90;1.00
5802;DHT22;2927;49.366;8.530;2022-11-20T13:24:06;10.00;1.00
5802;DHT22;2927;49.366;8.530;2022-11-20T13:26:32;9.90;1.00
5802;DHT22;2927;49.366;8.530;2022-11-20T13:29:09;9.90;1.00
5802;DHT22;2927;49.366;8.530;2022-11-20T13:31:40;10.00;1.00
5802;DHT22;2927;49.366;8.530;2022-11-20T13:34:12;10.00;1.00
5802;DHT22;2927;49.366;8.530;2022-11-20T13:36:55;9.90;99.90
5802;DHT22;2927;49.366;8.530;2022-11-20T13:39:35;9.80;1.00
5802;DHT22;2927;49.366;8.530;2022-11-20T13:44:44;9.70;1.00
5802;DHT22;2927;49.366;8.530;2022-11-20T13:47:23;9.80;1.00
5802;DHT22;2927;49.366;8.530;2022-11-20T13:49:51;9.70;99.90
5802;DHT22;2927;49.366;8.530;2022-11-20T13:52:33;9.70;99.90
5802;DHT22;2927;49.366;8.530;2022-11-20T14:01:15;9.40;99.90
5802;DHT22;2927;49.366;8.530;2022-11-20T14:03:40;9.40;1.00
5802;DHT22;2927;49.366;8.530;2022-11-20T14:06:32;9.30;1.00
5802;DHT22;2927;49.366;8.530;2022-11-20T14:08:57;9.30;1.00
5802;DHT22;2927;49.366;8.530;2022-11-20T14:11:25;9.20;1.00
5802;DHT22;2927;49.366;8.530;2022-11-20T14:14:18;9.20;65.50
5802;DHT22;2927;49.366;8.530;2022-11-20T14:16:45;9.20;81.60
5802;DHT22;2927;49.366;8.530;2022-11-20T14:19:29;9.10;99.90
5802;DHT22;2927;49.366;8.530;2022-11-20T14:29:52;9.00;1.00
5802;DHT22;2927;49.366;8.530;2022-11-20T14:32:20;9.00;99.90
5802;DHT22;2927;49.366;8.530;2022-11-20T14:37:28;8.90;1.00
5802;DHT22;2927;49.366;8.530;2022-11-20T14:39:56;8.80;99.90
5802;DHT22;2927;49.366;8.530;2022-11-20T15:00:30;8.50;1.00
5802;DHT22;2927;49.366;8.530;2022-11-20T15:08:08;8.30;1.00
5802;DHT22;2927;49.366;8.530;2022-11-20T15:10:34;8.30;99.90
5802;DHT22;2927;49.366;8.530;2022-11-20T15:13:03;8.20;1.00
5802;DHT22;2927;49.366;8.530;2022-11-20T15:18:13;8.20;99.90
5802;DHT22;2927;49.366;8.530;2022-11-20T15:20:40;8.20;1.00
5802;DHT22;2927;49.366;8.530;2022-11-20T15:25:42;8.10;1.00
5802;DHT22;2927;49.366;8.530;2022-11-20T15:28:30;8.10;1.00
5802;DHT22;2927;49.366;8.530;2022-11-20T15:30:56;8.10;1.00
5802;DHT22;2927;49.366;8.530;2022-11-20T15:33:22;8.00;1.00
5802;DHT22;2927;49.366;8.530;2022-11-20T15:35:48;8.10;1.00
5802;DHT22;2927;49.366;8.530;2022-11-20T15:38:13;8.10;99.90
5802;DHT22;2927;49.366;8.530;2022-11-20T15:40:39;8.10;1.00
5802;DHT22;2927;49.366;8.530;2022-11-20T15:43:05;8.10;45.70
5802;DHT22;2927;49.366;8.530;2022-11-20T15:45:49;8.00;1.00
5802;DHT22;2927;49.366;8.530;2022-11-20T15:48:20;8.00;1.00
5802;DHT22;2927;49.366;8.530;2022-11-20T15:50:58;8.00;1.00
5802;DHT22;2927;49.366;8.530;2022-11-20T15:53:25;8.00;1.00
5802;DHT22;2927;49.366;8.530;2022-11-20T15:55:50;8.00;1.00
5802;DHT22;2927;49.366;8.530;2022-11-20T15:58:16;8.00;40.60
5802;DHT22;2927;49.366;8.530;2022-11-20T16:00:42;8.00;99.90
5802;DHT22;2927;49.366;8.530;2022-11-20T16:03:11;7.90;99.90
5802;DHT22;2927;49.366;8.530;2022-11-20T16:05:37;8.00;1.00
5802;DHT22;2927;49.366;8.530;2022-11-20T16:08:02;8.00;99.90
5802;DHT22;2927;49.366;8.530;2022-11-20T16:10:28;7.90;1.00
5802;DHT22;2927;49.366;8.530;2022-11-20T16:12:54;7.90;1.00
5802;DHT22;2927;49.366;8.530;2022-11-20T16:15:38;7.90;1.00
5802;DHT22;2927;49.366;8.530;2022-11-20T16:18:20;7.90;1.00
5802;DHT22;2927;49.366;8.530;2022-11-20T16:20:51;7.90;1.00
5802;DHT22;2927;49.366;8.530;2022-11-20T16:23:17;8.00;1.00
5802;DHT22;2927;49.366;8.530;2022-11-20T16:25:43;7.90;1.00
5802;DHT22;2927;49.366;8.530;2022-11-20T16:28:10;8.00;1.00
5802;DHT22;2927;49.366;8.530;2022-11-20T16:30:36;7.90;1.00
5802;DHT22;2927;49.366;8.530;2022-11-20T16:33:02;7.90;1.00
5802;DHT22;2927;49.366;8.530;2022-11-20T16:35:30;7.90;1.00
5802;DHT22;2927;49.366;8.530;2022-11-20T16:37:57;7.90;1.00
5802;DHT22;2927;49.366;8.530;2022-11-20T16:40:23;7.90;72.20
5802;DHT22;2927;49.366;8.530;2022-11-20T16:42:49;7.90;1.00
5802;DHT22;2927;49.366;8.530;2022-11-20T16:45:15;7.90;1.00
5802;DHT22;2927;49.366;8.530;2022-11-20T16:47:41;7.90;1.00
5802;DHT22;2927;49.366;8.530;2022-11-20T16:50:06;7.90;1.00
5802;DHT22;2927;49.366;8.530;2022-11-20T16:52:32;7.90;1.00
5802;DHT22;2927;49.366;8.530;2022-11-20T16:54:58;7.90;99.90
5802;DHT22;2927;49.366;8.530;2022-11-20T16:57:25;7.90;99.90
5802;DHT22;2927;49.366;8.530;2022-11-20T16:59:51;7.90;1.00
5802;DHT22;2927;49.366;8.530;2022-11-20T17:02:17;7.90;1.00
5802;DHT22;2927;49.366;8.530;2022-11-20T17:04:42;7.90;1.00
5802;DHT22;2927;49.366;8.530;2022-11-20T17:07:08;7.90;1.00
5802;DHT22;2927;49.366;8.530;2022-11-20T17:09:33;7.90;1.00
5802;DHT22;2927;49.366;8.530;2022-11-20T17:11:59;7.90;99.90
5802;DHT22;2927;49.366;8.530;2022-11-20T17:14:25;7.90;1.00
5802;DHT22;2927;49.366;8.530;2022-11-20T17:16:50;7.90;1.00
5802;DHT22;2927;49.366;8.530;2022-11-20T17:19:16;7.80;1.00
5802;DHT22;2927;49.366;8.530;2022-11-20T17:21:41;7.90;1.00
5802;DHT22;2927;49.366;8.530;2022-11-20T17:24:09;7.80;99.90
5802;DHT22;2927;49.366;8.530;2022-11-20T17:26:36;7.80;99.90
5802;DHT22;2927;49.366;8.530;2022-11-20T17:29:07;7.80;1.00
5802;DHT22;2927;49.366;8.530;2022-11-20T17:31:34;7.80;1.00
5802;DHT22;2927;49.366;8.530;2022-11-20T17:34:03;7.80;99.90
5802;DHT22;2927;49.366;8.530;2022-11-20T17:36:29;7.70;1.00
5802;DHT22;2927;49.366;8.530;2022-11-20T17:38:55;7.80;1.00
5802;DHT22;2927;49.366;8.530;2022-11-20T17:41:22;7.80;1.00
5802;DHT22;2927;49.366;8.530;2022-11-20T17:43:52;7.70;1.00
5802;DHT22;2927;49.366;8.530;2022-11-20T17:46:22;7.70;1.00
5802;DHT22;2927;49.366;8.530;2022-11-20T17:48:49;7.70;1.00
5802;DHT22;2927;49.366;8.530;2022-11-20T17:51:20;7.60;1.00
5802;DHT22;2927;49.366;8.530;2022-11-20T17:53:49;7.70;1.00
5802;DHT22;2927;49.366;8.530;2022-11-20T17:56:15;7.60;99.90
5802;DHT22;2927;49.366;8.530;2022-11-20T17:59:03;7.60;99.90
5802;DHT22;2927;49.366;8.530;2022-11-20T18:01:28;7.70;1.00
5802;DHT22;2927;49.366;8.530;2022-11-20T18:03:55;7.60;1.00
5802;DHT22;2927;49.366;8.530;2022-11-20T18:06:23;7.60;1.00
5802;DHT22;2927;49.366;8.530;2022-11-20T18:08:49;7.60;1.00
5802;DHT22;2927;49.366;8.530;2022-11-20T18:11:20;7.60;1.00
5802;DHT22;2927;49.366;8.530;2022-11-20T18:13:48;7.70;1.00